sensor_id;sensor_type;location;lat;lon;timestamp;temperature;humidity
10316;DHT22;5203;48.976;8.306;2022-09-03T00:00:32;22.90;62.70
10316;DHT22;5203;48.976;8.306;2022-09-03T00:03:07;22.70;63.80
10316;DHT22;5203;48.976;8.306;2022-09-03T00:09:18;22.50;66.30
10316;DHT22;5203;48.976;8.306;2022-09-03T00:14:15;22.50;64.50
10316;DHT22;5203;48.976;8.306;2022-09-03T00:16:53;22.60;63.90
10316;DHT22;5203;48.976;8.306;2022-09-03T00:19:24;22.50;65.30
10316;DHT22;5203;48.976;8.306;2022-09-03T00:22:01;22.60;64.20
10316;DHT22;5203;48.976;8.306;2022-09-03T00:24:33;22.70;63.60
10316;DHT22;5203;48.976;8.306;2022-09-03T00:27:04;22.70;63.80
10316;DHT22;5203;48.976;8.306;2022-09-03T00:29:48;22.70;64.40
10316;DHT22;5203;48.976;8.306;2022-09-03T00:32:23;22.70;63.70
10316;DHT22;5203;48.976;8.306;2022-09-03T00:34:55;22.70;63.70
10316;DHT22;5203;48.976;8.306;2022-09-03T00:37:22;22.70;63.90
10316;DHT22;5203;48.976;8.306;2022-09-03T00:39:48;22.70;64.00
10316;DHT22;5203;48.976;8.306;2022-09-03T00:45:02;22.70;64.80
10316;DHT22;5203;48.976;8.306;2022-09-03T00:47:52;22.60;65.10
10316;DHT22;5203;48.976;8.306;2022-09-03T00:56:07;22.50;65.10
10316;DHT22;5203;48.976;8.306;2022-09-03T00:59:07;22.50;64.60
10316;DHT22;5203;48.976;8.306;2022-09-03T01:01:47;22.50;64.50
10316;DHT22;5203;48.976;8.306;2022-09-03T01:07:57;22.60;63.20
10316;DHT22;5203;48.976;8.306;2022-09-03T01:26:46;21.90;66.80
10316;DHT22;5203;48.976;8.306;2022-09-03T01:29:39;21.80;67.40
10316;DHT22;5203;48.976;8.306;2022-09-03T01:32:17;21.80;67.20
10316;DHT22;5203;48.976;8.306;2022-09-03T01:34:58;21.80;66.50
10316;DHT22;5203;48.976;8.306;2022-09-03T01:42:58;21.80;67.10
10316;DHT22;5203;48.976;8.306;2022-09-03T01:45:39;21.90;68.10
10316;DHT22;5203;48.976;8.306;2022-09-03T01:50:55;21.80;66.70
10316;DHT22;5203;48.976;8.306;2022-09-03T01:54:05;22.00;66.50
10316;DHT22;5203;48.976;8.306;2022-09-03T02:04:30;22.00;66.60
10316;DHT22;5203;48.976;8.306;2022-09-03T02:06:58;22.00;67.70
10316;DHT22;5203;48.976;8.306;2022-09-03T02:09:26;22.00;67.20
10316;DHT22;5203;48.976;8.306;2022-09-03T02:12:00;21.90;68.60
10316;DHT22;5203;48.976;8.306;2022-09-03T02:14:29;21.80;68.70
10316;DHT22;5203;48.976;8.306;2022-09-03T02:16:57;21.80;68.30
10316;DHT22;5203;48.976;8.306;2022-09-03T02:19:26;21.80;68.50
10316;DHT22;5203;48.976;8.306;2022-09-03T02:21:53;21.90;68.40
10316;DHT22;5203;48.976;8.306;2022-09-03T02:24:20;21.90;68.90
10316;DHT22;5203;48.976;8.306;2022-09-03T02:26:45;21.80;68.60
10316;DHT22;5203;48.976;8.306;2022-09-03T02:29:13;21.80;68.20
10316;DHT22;5203;48.976;8.306;2022-09-03T02:31:39;21.90;69.20
10316;DHT22;5203;48.976;8.306;2022-09-03T02:34:05;21.90;69.30
10316;DHT22;5203;48.976;8.306;2022-09-03T02:36:42;21.80;69.50
10316;DHT22;5203;48.976;8.306;2022-09-03T02:39:11;21.70;70.10
10316;DHT22;5203;48.976;8.306;2022-09-03T02:41:37;21.70;70.60
10316;DHT22;5203;48.976;8.306;2022-09-03T02:44:12;21.80;70.40
10316;DHT22;5203;48.976;8.306;2022-09-03T02:46:51;21.80;70.50
10316;DHT22;5203;48.976;8.306;2022-09-03T02:49:18;21.70;70.70
10316;DHT22;5203;48.976;8.306;2022-09-03T02:51:44;21.70;71.00
10316;DHT22;5203;48.976;8.306;2022-09-03T02:54:10;21.60;71.60
10316;DHT22;5203;48.976;8.306;2022-09-03T02:56:37;21.60;71.60
10316;DHT22;5203;48.976;8.306;2022-09-03T02:59:04;21.50;71.90
10316;DHT22;5203;48.976;8.306;2022-09-03T03:01:30;21.60;71.30
10316;DHT22;5203;48.976;8.306;2022-09-03T03:03:56;21.50;72.90
10316;DHT22;5203;48.976;8.306;2022-09-03T03:06:22;21.50;73.00
10316;DHT22;5203;48.976;8.306;2022-09-03T03:08:49;21.50;72.50
10316;DHT22;5203;48.976;8.306;2022-09-03T03:11:16;21.50;72.60
10316;DHT22;5203;48.976;8.306;2022-09-03T03:13:43;21.60;71.50
10316;DHT22;5203;48.976;8.306;2022-09-03T03:16:10;21.60;72.10
10316;DHT22;5203;48.976;8.306;2022-09-03T03:18:36;21.60;72.10
10316;DHT22;5203;48.976;8.306;2022-09-03T03:21:07;21.50;74.10
10316;DHT22;5203;48.976;8.306;2022-09-03T03:23:34;21.40;73.80
10316;DHT22;5203;48.976;8.306;2022-09-03T03:26:03;21.40;73.60
10316;DHT22;5203;48.976;8.306;2022-09-03T03:28:30;21.40;73.70
10316;DHT22;5203;48.976;8.306;2022-09-03T03:31:19;21.40;73.60
10316;DHT22;5203;48.976;8.306;2022-09-03T03:33:59;21.60;73.10
10316;DHT22;5203;48.976;8.306;2022-09-03T03:36:29;21.60;72.90
10316;DHT22;5203;48.976;8.306;2022-09-03T03:38:56;21.60;73.50
10316;DHT22;5203;48.976;8.306;2022-09-03T03:41:33;21.60;75.00
10316;DHT22;5203;48.976;8.306;2022-09-03T03:44:02;21.30;76.60
10316;DHT22;5203;48.976;8.306;2022-09-03T03:46:37;21.30;77.40
10316;DHT22;5203;48.976;8.306;2022-09-03T03:49:03;21.20;78.60
10316;DHT22;5203;48.976;8.306;2022-09-03T03:51:31;21.20;78.10
10316;DHT22;5203;48.976;8.306;2022-09-03T03:53:58;21.30;78.30
10316;DHT22;5203;48.976;8.306;2022-09-03T03:56:25;21.40;77.50
10316;DHT22;5203;48.976;8.306;2022-09-03T03:58:51;21.40;77.10
10316;DHT22;5203;48.976;8.306;2022-09-03T04:01:20;21.40;76.30
10316;DHT22;5203;48.976;8.306;2022-09-03T04:03:46;21.30;77.20
10316;DHT22;5203;48.976;8.306;2022-09-03T04:06:14;21.10;78.50
10316;DHT22;5203;48.976;8.306;2022-09-03T04:08:42;21.00;79.20
10316;DHT22;5203;48.976;8.306;2022-09-03T04:11:10;21.00;75.00
10316;DHT22;5203;48.976;8.306;2022-09-03T04:13:38;21.00;75.10
10316;DHT22;5203;48.976;8.306;2022-09-03T04:18:31;21.00;73.10
10316;DHT22;5203;48.976;8.306;2022-09-03T04:21:01;20.90;73.30
10316;DHT22;5203;48.976;8.306;2022-09-03T04:23:33;20.90;73.30
10316;DHT22;5203;48.976;8.306;2022-09-03T04:25:59;20.90;73.90
10316;DHT22;5203;48.976;8.306;2022-09-03T04:28:25;20.80;73.10
10316;DHT22;5203;48.976;8.306;2022-09-03T04:30:50;20.60;74.50
10316;DHT22;5203;48.976;8.306;2022-09-03T04:33:16;20.50;75.00
10316;DHT22;5203;48.976;8.306;2022-09-03T04:35:42;20.50;75.80
10316;DHT22;5203;48.976;8.306;2022-09-03T04:38:08;20.60;75.60
10316;DHT22;5203;48.976;8.306;2022-09-03T04:40:34;20.80;76.20
10316;DHT22;5203;48.976;8.306;2022-09-03T04:43:00;21.00;75.90
10316;DHT22;5203;48.976;8.306;2022-09-03T04:45:26;21.00;75.90
10316;DHT22;5203;48.976;8.306;2022-09-03T04:48:00;21.10;74.90
10316;DHT22;5203;48.976;8.306;2022-09-03T04:50:26;21.20;74.20
10316;DHT22;5203;48.976;8.306;2022-09-03T04:53:00;21.10;73.90
10316;DHT22;5203;48.976;8.306;2022-09-03T04:55:27;21.20;73.00
10316;DHT22;5203;48.976;8.306;2022-09-03T04:57:53;21.20;75.30
10316;DHT22;5203;48.976;8.306;2022-09-03T05:00:19;21.20;75.30
10316;DHT22;5203;48.976;8.306;2022-09-03T05:02:45;21.10;74.80
10316;DHT22;5203;48.976;8.306;2022-09-03T05:05:16;21.00;75.40
10316;DHT22;5203;48.976;8.306;2022-09-03T05:07:42;20.90;76.80
10316;DHT22;5203;48.976;8.306;2022-09-03T05:10:10;20.90;77.50
10316;DHT22;5203;48.976;8.306;2022-09-03T05:12:41;20.90;76.60
10316;DHT22;5203;48.976;8.306;2022-09-03T05:15:07;20.80;78.90
10316;DHT22;5203;48.976;8.306;2022-09-03T05:17:32;20.90;80.70
10316;DHT22;5203;48.976;8.306;2022-09-03T05:19:58;21.00;80.20
10316;DHT22;5203;48.976;8.306;2022-09-03T05:22:24;21.10;77.80
10316;DHT22;5203;48.976;8.306;2022-09-03T05:24:49;21.10;79.90
10316;DHT22;5203;48.976;8.306;2022-09-03T05:27:15;21.10;81.30
10316;DHT22;5203;48.976;8.306;2022-09-03T05:29:44;21.00;81.40
10316;DHT22;5203;48.976;8.306;2022-09-03T05:32:11;21.00;82.00
10316;DHT22;5203;48.976;8.306;2022-09-03T05:34:42;21.00;83.90
10316;DHT22;5203;48.976;8.306;2022-09-03T05:37:08;20.90;83.30
10316;DHT22;5203;48.976;8.306;2022-09-03T05:39:34;20.80;84.80
10316;DHT22;5203;48.976;8.306;2022-09-03T05:41:59;20.60;87.40
10316;DHT22;5203;48.976;8.306;2022-09-03T05:44:25;20.40;87.50
10316;DHT22;5203;48.976;8.306;2022-09-03T05:46:51;20.50;86.90
10316;DHT22;5203;48.976;8.306;2022-09-03T05:49:17;20.50;84.90
10316;DHT22;5203;48.976;8.306;2022-09-03T05:51:42;20.60;85.10
10316;DHT22;5203;48.976;8.306;2022-09-03T05:54:09;20.70;85.60
10316;DHT22;5203;48.976;8.306;2022-09-03T05:56:37;20.70;86.20
10316;DHT22;5203;48.976;8.306;2022-09-03T05:59:06;20.70;86.60
10316;DHT22;5203;48.976;8.306;2022-09-03T06:01:41;20.70;87.50
10316;DHT22;5203;48.976;8.306;2022-09-03T06:04:10;20.80;88.20
10316;DHT22;5203;48.976;8.306;2022-09-03T06:06:39;20.80;86.50
10316;DHT22;5203;48.976;8.306;2022-09-03T06:09:16;21.00;84.90
10316;DHT22;5203;48.976;8.306;2022-09-03T06:11:43;21.10;86.20
10316;DHT22;5203;48.976;8.306;2022-09-03T06:14:11;21.10;85.00
10316;DHT22;5203;48.976;8.306;2022-09-03T06:16:41;21.20;83.90
10316;DHT22;5203;48.976;8.306;2022-09-03T06:19:08;21.20;81.90
10316;DHT22;5203;48.976;8.306;2022-09-03T06:21:39;21.00;82.60
10316;DHT22;5203;48.976;8.306;2022-09-03T06:24:11;21.00;82.40
10316;DHT22;5203;48.976;8.306;2022-09-03T06:26:37;21.10;83.00
10316;DHT22;5203;48.976;8.306;2022-09-03T06:29:03;21.00;84.70
10316;DHT22;5203;48.976;8.306;2022-09-03T06:31:29;20.70;87.10
10316;DHT22;5203;48.976;8.306;2022-09-03T06:33:55;20.70;88.10
10316;DHT22;5203;48.976;8.306;2022-09-03T06:36:22;20.60;88.70
10316;DHT22;5203;48.976;8.306;2022-09-03T06:38:51;20.70;87.90
10316;DHT22;5203;48.976;8.306;2022-09-03T06:41:19;20.90;86.70
10316;DHT22;5203;48.976;8.306;2022-09-03T06:43:46;20.90;88.00
10316;DHT22;5203;48.976;8.306;2022-09-03T06:46:17;20.70;89.40
10316;DHT22;5203;48.976;8.306;2022-09-03T06:48:43;20.50;90.30
10316;DHT22;5203;48.976;8.306;2022-09-03T06:51:12;20.70;91.00
10316;DHT22;5203;48.976;8.306;2022-09-03T06:53:40;20.80;90.20
10316;DHT22;5203;48.976;8.306;2022-09-03T06:56:09;20.90;90.80
10316;DHT22;5203;48.976;8.306;2022-09-03T06:58:43;20.90;92.90
10316;DHT22;5203;48.976;8.306;2022-09-03T07:01:17;20.70;92.90
10316;DHT22;5203;48.976;8.306;2022-09-03T07:03:44;20.60;95.10
10316;DHT22;5203;48.976;8.306;2022-09-03T07:06:16;20.60;94.80
10316;DHT22;5203;48.976;8.306;2022-09-03T07:08:42;20.50;95.20
10316;DHT22;5203;48.976;8.306;2022-09-03T07:11:11;20.40;94.30
10316;DHT22;5203;48.976;8.306;2022-09-03T07:13:39;20.50;94.10
10316;DHT22;5203;48.976;8.306;2022-09-03T07:16:08;20.60;94.10
10316;DHT22;5203;48.976;8.306;2022-09-03T07:18:35;20.60;95.00
10316;DHT22;5203;48.976;8.306;2022-09-03T07:21:03;20.50;95.80
10316;DHT22;5203;48.976;8.306;2022-09-03T07:23:29;20.40;96.70
10316;DHT22;5203;48.976;8.306;2022-09-03T07:25:57;20.30;96.30
10316;DHT22;5203;48.976;8.306;2022-09-03T07:28:25;20.20;98.50
10316;DHT22;5203;48.976;8.306;2022-09-03T07:30:52;20.20;97.80
10316;DHT22;5203;48.976;8.306;2022-09-03T07:33:17;20.20;96.70
10316;DHT22;5203;48.976;8.306;2022-09-03T07:35:44;20.20;97.80
10316;DHT22;5203;48.976;8.306;2022-09-03T07:38:10;20.30;97.40
10316;DHT22;5203;48.976;8.306;2022-09-03T07:40:36;20.30;96.50
10316;DHT22;5203;48.976;8.306;2022-09-03T07:43:04;20.30;95.60
10316;DHT22;5203;48.976;8.306;2022-09-03T07:45:30;20.30;95.60
10316;DHT22;5203;48.976;8.306;2022-09-03T07:47:58;20.30;95.40
10316;DHT22;5203;48.976;8.306;2022-09-03T07:50:23;20.30;95.20
10316;DHT22;5203;48.976;8.306;2022-09-03T07:52:54;20.30;95.10
10316;DHT22;5203;48.976;8.306;2022-09-03T07:55:20;20.20;96.20
10316;DHT22;5203;48.976;8.306;2022-09-03T07:57:45;20.00;97.30
10316;DHT22;5203;48.976;8.306;2022-09-03T08:00:11;19.70;98.00
10316;DHT22;5203;48.976;8.306;2022-09-03T08:02:37;19.80;96.90
10316;DHT22;5203;48.976;8.306;2022-09-03T08:05:03;20.00;97.50
10316;DHT22;5203;48.976;8.306;2022-09-03T08:07:29;20.10;97.30
10316;DHT22;5203;48.976;8.306;2022-09-03T08:09:55;20.00;98.80
10316;DHT22;5203;48.976;8.306;2022-09-03T08:12:21;19.90;99.40
10316;DHT22;5203;48.976;8.306;2022-09-03T08:14:48;19.70;99.90
10316;DHT22;5203;48.976;8.306;2022-09-03T08:17:13;19.60;99.90
10316;DHT22;5203;48.976;8.306;2022-09-03T08:19:39;19.40;99.90
10316;DHT22;5203;48.976;8.306;2022-09-03T08:22:06;19.50;99.90
10316;DHT22;5203;48.976;8.306;2022-09-03T08:24:32;19.50;99.90
10316;DHT22;5203;48.976;8.306;2022-09-03T08:26:59;19.60;99.90
10316;DHT22;5203;48.976;8.306;2022-09-03T08:29:25;19.50;99.90
10316;DHT22;5203;48.976;8.306;2022-09-03T08:31:52;19.40;99.90
10316;DHT22;5203;48.976;8.306;2022-09-03T08:34:18;19.40;99.90
10316;DHT22;5203;48.976;8.306;2022-09-03T08:36:45;19.50;99.90
10316;DHT22;5203;48.976;8.306;2022-09-03T08:39:12;19.60;99.90
10316;DHT22;5203;48.976;8.306;2022-09-03T08:44:28;19.90;99.90
10316;DHT22;5203;48.976;8.306;2022-09-03T08:47:08;19.90;99.90
10316;DHT22;5203;48.976;8.306;2022-09-03T08:49:44;19.80;99.90
10316;DHT22;5203;48.976;8.306;2022-09-03T08:58:12;20.40;99.90
10316;DHT22;5203;48.976;8.306;2022-09-03T09:01:02;20.60;99.90
10316;DHT22;5203;48.976;8.306;2022-09-03T09:04:04;20.30;99.90
10316;DHT22;5203;48.976;8.306;2022-09-03T09:11:59;20.00;99.90
10316;DHT22;5203;48.976;8.306;2022-09-03T09:14:38;20.10;99.90
10316;DHT22;5203;48.976;8.306;2022-09-03T09:22:40;19.90;99.90
10316;DHT22;5203;48.976;8.306;2022-09-03T09:25:12;20.20;99.90
10316;DHT22;5203;48.976;8.306;2022-09-03T09:28:29;20.30;99.90
10316;DHT22;5203;48.976;8.306;2022-09-03T09:30:54;20.60;99.50
10316;DHT22;5203;48.976;8.306;2022-09-03T09:33:21;20.80;99.40
10316;DHT22;5203;48.976;8.306;2022-09-03T09:35:48;21.00;96.30
10316;DHT22;5203;48.976;8.306;2022-09-03T09:38:14;21.20;93.60
10316;DHT22;5203;48.976;8.306;2022-09-03T09:40:43;21.40;94.00
10316;DHT22;5203;48.976;8.306;2022-09-03T09:43:13;21.60;93.40
10316;DHT22;5203;48.976;8.306;2022-09-03T09:45:45;21.70;94.60
10316;DHT22;5203;48.976;8.306;2022-09-03T09:48:27;21.80;95.90
10316;DHT22;5203;48.976;8.306;2022-09-03T09:53:30;21.90;93.00
10316;DHT22;5203;48.976;8.306;2022-09-03T09:55:58;22.20;91.90
10316;DHT22;5203;48.976;8.306;2022-09-03T09:58:26;22.40;88.40
10316;DHT22;5203;48.976;8.306;2022-09-03T10:00:57;22.50;87.10
10316;DHT22;5203;48.976;8.306;2022-09-03T10:03:23;22.70;87.10
10316;DHT22;5203;48.976;8.306;2022-09-03T10:06:07;22.70;89.50
10316;DHT22;5203;48.976;8.306;2022-09-03T10:09:06;22.70;86.90
10316;DHT22;5203;48.976;8.306;2022-09-03T10:11:33;22.90;87.80
10316;DHT22;5203;48.976;8.306;2022-09-03T10:14:10;23.30;88.10
10316;DHT22;5203;48.976;8.306;2022-09-03T10:16:42;23.30;90.10
10316;DHT22;5203;48.976;8.306;2022-09-03T10:19:18;23.40;86.90
10316;DHT22;5203;48.976;8.306;2022-09-03T10:21:53;23.50;86.10
10316;DHT22;5203;48.976;8.306;2022-09-03T10:26:57;23.50;83.10
10316;DHT22;5203;48.976;8.306;2022-09-03T10:29:23;23.60;88.40
10316;DHT22;5203;48.976;8.306;2022-09-03T10:32:22;23.50;88.70
10316;DHT22;5203;48.976;8.306;2022-09-03T10:35:31;23.30;88.00
10316;DHT22;5203;48.976;8.306;2022-09-03T10:38:17;23.30;89.60
10316;DHT22;5203;48.976;8.306;2022-09-03T10:49:33;23.00;90.70
10316;DHT22;5203;48.976;8.306;2022-09-03T10:52:25;22.80;91.10
10316;DHT22;5203;48.976;8.306;2022-09-03T10:55:13;22.80;92.70
10316;DHT22;5203;48.976;8.306;2022-09-03T10:58:31;22.80;94.60
10316;DHT22;5203;48.976;8.306;2022-09-03T11:00:43;22.80;91.40
10316;DHT22;5203;48.976;8.306;2022-09-03T11:06:09;22.80;93.50
10316;DHT22;5203;48.976;8.306;2022-09-03T11:08:56;22.90;94.40
10316;DHT22;5203;48.976;8.306;2022-09-03T11:11:30;23.20;95.00
10316;DHT22;5203;48.976;8.306;2022-09-03T11:14:08;23.20;92.50
10316;DHT22;5203;48.976;8.306;2022-09-03T11:16:41;23.40;90.30
10316;DHT22;5203;48.976;8.306;2022-09-03T11:19:12;23.60;92.00
10316;DHT22;5203;48.976;8.306;2022-09-03T11:21:40;23.60;91.10
10316;DHT22;5203;48.976;8.306;2022-09-03T11:24:13;23.60;87.50
10316;DHT22;5203;48.976;8.306;2022-09-03T11:26:44;23.60;85.60
10316;DHT22;5203;48.976;8.306;2022-09-03T11:29:19;23.70;86.50
10316;DHT22;5203;48.976;8.306;2022-09-03T11:34:43;23.30;89.90
10316;DHT22;5203;48.976;8.306;2022-09-03T11:37:27;23.30;88.90
10316;DHT22;5203;48.976;8.306;2022-09-03T11:40:04;23.70;85.70
10316;DHT22;5203;48.976;8.306;2022-09-03T11:42:34;23.80;85.20
10316;DHT22;5203;48.976;8.306;2022-09-03T11:45:19;24.00;83.90
10316;DHT22;5203;48.976;8.306;2022-09-03T11:47:48;24.30;81.40
10316;DHT22;5203;48.976;8.306;2022-09-03T11:50:24;24.50;82.90
10316;DHT22;5203;48.976;8.306;2022-09-03T11:53:06;24.90;83.10
10316;DHT22;5203;48.976;8.306;2022-09-03T11:55:47;25.30;79.00
10316;DHT22;5203;48.976;8.306;2022-09-03T11:58:36;25.80;75.90
10316;DHT22;5203;48.976;8.306;2022-09-03T12:01:07;25.80;76.70
10316;DHT22;5203;48.976;8.306;2022-09-03T12:09:34;25.80;78.50
10316;DHT22;5203;48.976;8.306;2022-09-03T12:14:45;26.70;69.30
10316;DHT22;5203;48.976;8.306;2022-09-03T12:19:54;27.10;66.80
10316;DHT22;5203;48.976;8.306;2022-09-03T12:22:22;27.40;68.40
10316;DHT22;5203;48.976;8.306;2022-09-03T12:24:48;27.90;65.00
10316;DHT22;5203;48.976;8.306;2022-09-03T12:27:20;27.90;64.20
10316;DHT22;5203;48.976;8.306;2022-09-03T12:30:00;27.70;62.50
10316;DHT22;5203;48.976;8.306;2022-09-03T12:32:29;26.70;65.10
10316;DHT22;5203;48.976;8.306;2022-09-03T12:34:56;26.30;64.70
10316;DHT22;5203;48.976;8.306;2022-09-03T12:37:24;25.90;71.80
10316;DHT22;5203;48.976;8.306;2022-09-03T12:39:52;25.70;69.50
10316;DHT22;5203;48.976;8.306;2022-09-03T12:42:26;25.80;69.90
10316;DHT22;5203;48.976;8.306;2022-09-03T12:44:52;25.90;69.70
10316;DHT22;5203;48.976;8.306;2022-09-03T12:47:23;26.10;65.70
10316;DHT22;5203;48.976;8.306;2022-09-03T12:49:56;25.60;64.80
10316;DHT22;5203;48.976;8.306;2022-09-03T12:52:31;25.80;64.50
10316;DHT22;5203;48.976;8.306;2022-09-03T12:54:59;25.30;67.70
10316;DHT22;5203;48.976;8.306;2022-09-03T12:57:37;24.90;70.90
10316;DHT22;5203;48.976;8.306;2022-09-03T13:00:07;24.60;72.60
10316;DHT22;5203;48.976;8.306;2022-09-03T13:05:24;24.50;76.80
10316;DHT22;5203;48.976;8.306;2022-09-03T13:07:54;24.50;74.70
10316;DHT22;5203;48.976;8.306;2022-09-03T13:13:06;25.00;75.30
10316;DHT22;5203;48.976;8.306;2022-09-03T13:15:33;25.50;69.90
10316;DHT22;5203;48.976;8.306;2022-09-03T13:18:05;25.90;70.20
10316;DHT22;5203;48.976;8.306;2022-09-03T13:20:50;26.20;68.90
10316;DHT22;5203;48.976;8.306;2022-09-03T13:31:52;26.00;55.70
10316;DHT22;5203;48.976;8.306;2022-09-03T13:37:42;26.90;54.00
10316;DHT22;5203;48.976;8.306;2022-09-03T13:40:18;27.30;53.10
10316;DHT22;5203;48.976;8.306;2022-09-03T13:42:52;27.50;51.00
10316;DHT22;5203;48.976;8.306;2022-09-03T13:48:25;27.70;51.10
10316;DHT22;5203;48.976;8.306;2022-09-03T13:51:16;27.20;51.10
10316;DHT22;5203;48.976;8.306;2022-09-03T13:54:29;26.70;52.80
10316;DHT22;5203;48.976;8.306;2022-09-03T13:56:54;27.00;53.80
10316;DHT22;5203;48.976;8.306;2022-09-03T14:05:03;27.20;52.30
10316;DHT22;5203;48.976;8.306;2022-09-03T14:15:46;27.20;50.40
10316;DHT22;5203;48.976;8.306;2022-09-03T14:21:06;26.20;53.90
10316;DHT22;5203;48.976;8.306;2022-09-03T14:26:30;25.80;54.80
10316;DHT22;5203;48.976;8.306;2022-09-03T14:29:01;25.50;56.60
10316;DHT22;5203;48.976;8.306;2022-09-03T14:31:32;25.60;57.20
10316;DHT22;5203;48.976;8.306;2022-09-03T14:36:37;25.70;56.80
10316;DHT22;5203;48.976;8.306;2022-09-03T14:39:33;25.90;56.30
10316;DHT22;5203;48.976;8.306;2022-09-03T14:45:17;26.60;53.30
10316;DHT22;5203;48.976;8.306;2022-09-03T14:59:03;24.90;58.70
10316;DHT22;5203;48.976;8.306;2022-09-03T15:01:33;24.60;59.30
10316;DHT22;5203;48.976;8.306;2022-09-03T15:06:47;24.00;62.10
10316;DHT22;5203;48.976;8.306;2022-09-03T15:14:56;23.50;65.10
10316;DHT22;5203;48.976;8.306;2022-09-03T15:17:46;23.60;66.50
10316;DHT22;5203;48.976;8.306;2022-09-03T15:20:23;23.60;66.00
10316;DHT22;5203;48.976;8.306;2022-09-03T15:28:29;23.80;65.80
10316;DHT22;5203;48.976;8.306;2022-09-03T15:31:08;23.90;64.80
10316;DHT22;5203;48.976;8.306;2022-09-03T15:33:58;23.80;64.50
10316;DHT22;5203;48.976;8.306;2022-09-03T15:36:48;23.60;66.30
10316;DHT22;5203;48.976;8.306;2022-09-03T15:39:33;23.70;66.00
10316;DHT22;5203;48.976;8.306;2022-09-03T15:44:34;23.70;66.20
10316;DHT22;5203;48.976;8.306;2022-09-03T15:47:12;23.80;66.10
10316;DHT22;5203;48.976;8.306;2022-09-03T15:53:23;24.00;66.30
10316;DHT22;5203;48.976;8.306;2022-09-03T15:56:46;24.10;66.10
10316;DHT22;5203;48.976;8.306;2022-09-03T15:59:18;24.20;65.50
10316;DHT22;5203;48.976;8.306;2022-09-03T16:02:08;24.30;65.10
10316;DHT22;5203;48.976;8.306;2022-09-03T16:07:40;24.30;64.60
10316;DHT22;5203;48.976;8.306;2022-09-03T16:10:18;24.30;64.90
10316;DHT22;5203;48.976;8.306;2022-09-03T16:15:59;24.10;65.30
10316;DHT22;5203;48.976;8.306;2022-09-03T16:18:31;24.20;65.50
10316;DHT22;5203;48.976;8.306;2022-09-03T16:23:31;25.50;60.60
10316;DHT22;5203;48.976;8.306;2022-09-03T16:26:06;25.60;60.30
10316;DHT22;5203;48.976;8.306;2022-09-03T16:28:52;26.30;56.90
10316;DHT22;5203;48.976;8.306;2022-09-03T16:40:19;26.70;54.50
10316;DHT22;5203;48.976;8.306;2022-09-03T16:43:07;26.70;54.90
10316;DHT22;5203;48.976;8.306;2022-09-03T16:52:12;26.80;54.10
10316;DHT22;5203;48.976;8.306;2022-09-03T17:00:16;26.70;53.70
10316;DHT22;5203;48.976;8.306;2022-09-03T17:05:44;27.00;54.20
10316;DHT22;5203;48.976;8.306;2022-09-03T17:08:39;27.00;54.60
10316;DHT22;5203;48.976;8.306;2022-09-03T17:24:53;26.60;56.20
10316;DHT22;5203;48.976;8.306;2022-09-03T17:27:50;26.50;56.40
10316;DHT22;5203;48.976;8.306;2022-09-03T17:30:42;26.30;57.80
10316;DHT22;5203;48.976;8.306;2022-09-03T17:36:14;25.80;58.70
10316;DHT22;5203;48.976;8.306;2022-09-03T17:41:50;25.20;62.10
10316;DHT22;5203;48.976;8.306;2022-09-03T17:47:28;25.00;63.30
10316;DHT22;5203;48.976;8.306;2022-09-03T17:57:47;24.90;69.10
10316;DHT22;5203;48.976;8.306;2022-09-03T18:00:36;24.70;71.00
10316;DHT22;5203;48.976;8.306;2022-09-03T18:03:26;24.40;72.40
10316;DHT22;5203;48.976;8.306;2022-09-03T18:06:00;24.20;73.40
10316;DHT22;5203;48.976;8.306;2022-09-03T18:08:49;24.00;74.00
10316;DHT22;5203;48.976;8.306;2022-09-03T18:16:49;23.70;75.00
10316;DHT22;5203;48.976;8.306;2022-09-03T18:19:41;23.70;75.40
10316;DHT22;5203;48.976;8.306;2022-09-03T18:22:35;23.60;75.90
10316;DHT22;5203;48.976;8.306;2022-09-03T18:25:26;23.50;75.60
10316;DHT22;5203;48.976;8.306;2022-09-03T18:28:14;23.30;75.90
10316;DHT22;5203;48.976;8.306;2022-09-03T18:30:59;23.20;76.50
10316;DHT22;5203;48.976;8.306;2022-09-03T18:33:43;23.20;77.00
10316;DHT22;5203;48.976;8.306;2022-09-03T18:36:30;23.20;76.40
10316;DHT22;5203;48.976;8.306;2022-09-03T18:42:25;23.10;78.00
10316;DHT22;5203;48.976;8.306;2022-09-03T18:48:24;23.00;78.70
10316;DHT22;5203;48.976;8.306;2022-09-03T18:51:38;23.00;78.40
10316;DHT22;5203;48.976;8.306;2022-09-03T18:54:54;23.00;78.70
10316;DHT22;5203;48.976;8.306;2022-09-03T18:58:28;22.80;79.70
10316;DHT22;5203;48.976;8.306;2022-09-03T19:07:08;22.90;78.40
10316;DHT22;5203;48.976;8.306;2022-09-03T19:10:10;22.90;77.90
10316;DHT22;5203;48.976;8.306;2022-09-03T19:16:08;22.90;78.30
10316;DHT22;5203;48.976;8.306;2022-09-03T19:22:29;22.60;80.40
10316;DHT22;5203;48.976;8.306;2022-09-03T19:25:15;22.50;80.70
10316;DHT22;5203;48.976;8.306;2022-09-03T19:37:27;22.30;81.00
10316;DHT22;5203;48.976;8.306;2022-09-03T19:46:29;22.20;80.90
10316;DHT22;5203;48.976;8.306;2022-09-03T19:49:36;22.10;81.80
10316;DHT22;5203;48.976;8.306;2022-09-03T19:55:23;22.20;80.80
10316;DHT22;5203;48.976;8.306;2022-09-03T19:58:09;22.20;81.00
10316;DHT22;5203;48.976;8.306;2022-09-03T20:00:54;22.00;82.30
10316;DHT22;5203;48.976;8.306;2022-09-03T20:03:40;21.80;83.70
10316;DHT22;5203;48.976;8.306;2022-09-03T20:06:24;21.70;84.70
10316;DHT22;5203;48.976;8.306;2022-09-03T20:09:09;21.60;85.50
10316;DHT22;5203;48.976;8.306;2022-09-03T20:11:59;21.70;85.00
10316;DHT22;5203;48.976;8.306;2022-09-03T20:14:29;21.80;84.00
10316;DHT22;5203;48.976;8.306;2022-09-03T20:17:22;21.80;83.00
10316;DHT22;5203;48.976;8.306;2022-09-03T20:20:14;21.80;83.20
10316;DHT22;5203;48.976;8.306;2022-09-03T20:30:49;21.50;84.20
10316;DHT22;5203;48.976;8.306;2022-09-03T20:41:53;21.40;83.70
10316;DHT22;5203;48.976;8.306;2022-09-03T20:55:27;21.40;83.80
10316;DHT22;5203;48.976;8.306;2022-09-03T20:58:26;21.30;84.50
10316;DHT22;5203;48.976;8.306;2022-09-03T21:01:09;21.30;84.20
10316;DHT22;5203;48.976;8.306;2022-09-03T21:04:09;21.40;84.00
10316;DHT22;5203;48.976;8.306;2022-09-03T21:06:58;21.40;83.20
10316;DHT22;5203;48.976;8.306;2022-09-03T21:10:04;21.40;83.60
10316;DHT22;5203;48.976;8.306;2022-09-03T21:15:27;21.40;83.40
10316;DHT22;5203;48.976;8.306;2022-09-03T21:23:41;21.30;82.80
10316;DHT22;5203;48.976;8.306;2022-09-03T21:26:27;21.30;82.80
10316;DHT22;5203;48.976;8.306;2022-09-03T21:29:25;21.30;83.20
10316;DHT22;5203;48.976;8.306;2022-09-03T21:34:54;21.20;83.40
10316;DHT22;5203;48.976;8.306;2022-09-03T21:37:23;21.30;83.40
10316;DHT22;5203;48.976;8.306;2022-09-03T21:39:56;21.20;83.50
10316;DHT22;5203;48.976;8.306;2022-09-03T21:42:45;21.10;83.80
10316;DHT22;5203;48.976;8.306;2022-09-03T21:47:57;20.90;85.60
10316;DHT22;5203;48.976;8.306;2022-09-03T21:50:56;20.80;84.80
10316;DHT22;5203;48.976;8.306;2022-09-03T21:53:28;20.80;84.70
10316;DHT22;5203;48.976;8.306;2022-09-03T22:04:29;21.00;83.60
10316;DHT22;5203;48.976;8.306;2022-09-03T22:12:31;21.00;83.80